Time;durP1;ratioP1;P1;durP2;ratioP2;P2;SDS_P1;SDS_P2;PMS_P1;PMS_P2;Temp;Humidity;BMP_temperature;BMP_pressure;BME280_temperature;BME280_humidity;BME280_pressure;Samples;Min_cycle;Max_cycle;Signal;HPM_P1;HPM_P2
2023/10/09 00:02:23;;;;;;;0.00;0.00;;;;;;;17.70;64.09;100710.44;4883135;29;20325;-88
2023/10/09 00:04:51;;;;;;;0.00;0.00;;;;;;;17.99;63.70;100723.06;4901110;29;20227;-89
2023/10/09 00:07:19;;;;;;;0.00;0.00;;;;;;;17.57;64.76;100711.63;4909493;28;20198;-88
2023/10/09 00:09:46;;;;;;;0.00;0.00;;;;;;;17.62;65.68;100730.69;5051439;28;20221;-88
2023/10/09 00:12:22;;;;;;;0.50;0.50;;;;;;;17.58;65.39;100712.41;5068865;28;20214;-88
2023/10/09 00:14:48;;;;;;;0.00;0.00;;;;;;;17.57;65.25;100708.06;5065596;28;20732;-88
2023/10/09 00:17:18;;;;;;;0.00;0.00;;;;;;;17.20;65.88;100689.63;5057498;28;20171;-89
2023/10/09 00:19:51;;;;;;;0.00;0.00;;;;;;;17.49;65.87;100707.03;5056707;28;20665;-88
2023/10/09 00:22:25;;;;;;;0.00;0.00;;;;;;;17.75;65.54;100703.84;5056773;28;20194;-88
2023/10/09 00:25:10;;;;;;;0.00;0.00;;;;;;;17.83;64.83;100684.34;5061063;28;20192;-88
2023/10/09 00:27:42;;;;;;;0.00;0.00;;;;;;;17.72;64.99;100658.38;5060745;28;20171;-88
2023/10/09 00:30:15;;;;;;;0.00;0.00;;;;;;;17.63;65.37;100660.44;5067846;28;20266;-88
2023/10/09 00:32:51;;;;;;;0.00;0.00;;;;;;;17.76;65.44;100666.75;5070461;28;20183;-89
2023/10/09 00:38:07;;;;;;;0.00;0.00;;;;;;;17.88;65.08;100654.81;5069445;28;20226;-88
2023/10/09 00:40:34;;;;;;;0.00;0.00;;;;;;;17.92;65.30;100639.13;5066032;28;20266;-87
2023/10/09 00:43:06;;;;;;;0.00;0.00;;;;;;;17.88;65.64;100624.41;5063014;28;20174;-89
2023/10/09 00:45:32;;;;;;;0.00;0.00;;;;;;;18.00;65.71;100652.78;5059274;28;20222;-88
2023/10/09 00:48:30;;;;;;;0.00;0.00;;;;;;;18.01;65.62;100646.09;5064058;28;20170;-87
2023/10/09 00:51:00;;;;;;;0.00;0.00;;;;;;;18.10;65.34;100643.16;5067024;28;20228;-87
2023/10/09 00:53:33;;;;;;;0.00;0.00;;;;;;;18.34;65.18;100647.69;5069275;28;20174;-89
2023/10/09 00:56:18;;;;;;;0.00;0.00;;;;;;;18.47;65.22;100631.78;5070003;28;20174;-89
2023/10/09 00:58:46;;;;;;;0.00;0.00;;;;;;;18.20;65.40;100626.00;5066687;28;20266;-89
2023/10/09 01:01:16;;;;;;;0.00;0.00;;;;;;;18.30;65.38;100630.19;5066327;28;20227;-88
2023/10/09 01:03:42;;;;;;;0.00;0.00;;;;;;;18.51;65.45;100627.91;5074645;28;20825;-89
2023/10/09 01:11:10;;;;;;;0.00;0.00;;;;;;;18.23;66.95;100597.66;5067563;28;20206;-89
2023/10/09 01:16:21;;;;;;;0.00;0.00;;;;;;;17.62;69.33;100572.41;5071094;28;20174;-89
2023/10/09 01:18:51;;;;;;;0.00;0.00;;;;;;;17.94;69.04;100598.09;5053369;28;20649;-88
2023/10/09 01:21:17;;;;;;;0.00;0.00;;;;;;;16.92;70.60;100581.97;5070451;28;20199;-89
2023/10/09 01:26:57;;;;;;;0.00;0.00;;;;;;;16.70;71.66;100584.47;5062728;28;20175;-90
2023/10/09 01:29:32;;;;;;;0.00;0.00;;;;;;;17.30;71.44;100627.59;5067849;28;20171;-92
2023/10/09 01:32:02;;;;;;;0.00;0.00;;;;;;;17.81;70.57;100636.91;5083724;28;20178;-90
2023/10/09 01:34:41;;;;;;;0.00;0.00;;;;;;;17.92;69.93;100626.09;5082148;28;20201;-91
2023/10/09 01:39:59;;;;;;;0.00;0.00;;;;;;;18.18;70.18;100638.59;5097085;28;20209;-87
2023/10/09 01:42:34;;;;;;;0.00;0.00;;;;;;;18.21;70.28;100635.09;5061792;28;20250;-89
2023/10/09 01:45:16;;;;;;;0.00;0.00;;;;;;;18.32;70.58;100633.41;5078445;28;20159;-87
2023/10/09 01:47:46;;;;;;;0.00;0.00;;;;;;;17.89;71.11;100615.75;5075293;28;20187;-89
2023/10/09 01:50:19;;;;;;;0.00;0.00;;;;;;;17.52;71.54;100609.66;5065673;28;20207;-89
2023/10/09 01:52:44;;;;;;;0.00;0.00;;;;;;;17.96;71.11;100627.03;5064753;28;20179;-88
2023/10/09 01:55:15;;;;;;;0.00;0.00;;;;;;;18.08;70.64;100626.94;5064828;28;20175;-89
2023/10/09 01:57:44;;;;;;;0.00;0.00;;;;;;;17.45;69.89;100582.63;5059804;28;20206;-88
2023/10/09 02:00:16;;;;;;;0.00;0.00;;;;;;;17.60;70.37;100608.66;5076967;28;20194;-88
2023/10/09 02:02:44;;;;;;;0.10;0.10;;;;;;;17.57;71.19;100592.81;5069558;28;20246;-88
2023/10/09 02:05:23;;;;;;;0.00;0.00;;;;;;;17.54;71.77;100577.75;5070511;28;20546;-88
2023/10/09 02:07:51;;;;;;;0.00;0.00;;;;;;;17.53;73.28;100586.41;5047807;28;20270;-88
2023/10/09 02:12:57;;;;;;;0.83;0.83;;;;;;;17.76;74.22;100579.13;5060469;28;20182;-88
2023/10/09 02:18:18;;;;;;;0.00;0.00;;;;;;;18.00;74.64;100582.88;5020826;28;20189;-87
2023/10/09 02:20:47;;;;;;;0.00;0.00;;;;;;;18.14;74.80;100589.53;5068270;28;20217;-89
2023/10/09 02:23:17;;;;;;;0.00;0.00;;;;;;;18.46;74.31;100596.97;5068058;28;20348;-88
2023/10/09 02:25:43;;;;;;;0.00;0.00;;;;;;;18.54;73.84;100582.94;5067944;28;20179;-88
2023/10/09 02:28:17;;;;;;;1.10;1.10;;;;;;;18.43;73.18;100557.00;5071393;28;20179;-88
2023/10/09 02:30:47;;;;;;;0.00;0.00;;;;;;;18.26;73.46;100538.84;5085226;22;20236;-79
2023/10/09 02:33:14;;;;;;;0.00;0.00;;;;;;;18.04;73.95;100515.41;5072396;28;20560;-79
2023/10/09 02:35:42;;;;;;;0.00;0.00;;;;;;;18.06;74.27;100535.22;5072358;28;20178;-79
2023/10/09 02:38:10;;;;;;;0.00;0.00;;;;;;;18.05;74.76;100521.75;5073574;28;20174;-78
2023/10/09 02:41:17;;;;;;;0.00;0.00;;;;;;;17.79;75.54;100502.97;5072116;28;20226;-78
2023/10/09 02:43:25;;;;;;;0.00;0.00;;;;;;;17.57;76.65;100498.88;5072755;28;20206;-78
2023/10/09 02:45:50;;;;;;;0.00;0.00;;;;;;;17.53;77.89;100487.75;5072080;28;20206;-78
2023/10/09 02:48:19;;;;;;;0.00;0.00;;;;;;;17.45;78.50;100497.00;5072986;28;20206;-78
2023/10/09 02:50:45;;;;;;;0.00;0.00;;;;;;;17.08;79.71;100477.13;5072687;28;20179;-78
2023/10/09 02:53:18;;;;;;;0.00;0.00;;;;;;;17.19;81.08;100482.91;5072173;28;20177;-78
2023/10/09 02:56:01;;;;;;;0.00;0.00;;;;;;;17.30;81.51;100494.22;5069747;28;20208;-79
2023/10/09 02:58:27;;;;;;;1.03;1.03;;;;;;;17.41;81.47;100490.59;5071325;28;20182;-79
2023/10/09 03:00:52;;;;;;;1.73;1.30;;;;;;;17.37;82.17;100505.47;5068481;28;20191;-79
2023/10/09 03:03:18;;;;;;;0.30;0.30;;;;;;;17.55;82.14;100503.97;5063959;28;20198;-78
2023/10/09 03:05:44;;;;;;;1.13;0.73;;;;;;;17.49;82.54;100506.16;5060628;28;20189;-79
2023/10/09 03:08:12;;;;;;;3.67;3.37;;;;;;;17.54;82.76;100505.91;5071903;28;20265;-78
2023/10/09 03:10:40;;;;;;;5.10;0.47;;;;;;;17.39;83.25;100492.91;5073011;28;20219;-78
2023/10/09 03:13:05;;;;;;;0.20;0.20;;;;;;;17.73;82.94;100499.69;5071758;28;20648;-78
2023/10/09 03:15:35;;;;;;;0.30;0.30;;;;;;;17.62;83.03;100495.03;5072877;28;20268;-79
2023/10/09 03:18:04;;;;;;;0.37;0.37;;;;;;;17.67;83.35;100503.88;5061225;28;20240;-79
2023/10/09 03:20:30;;;;;;;17.53;2.00;;;;;;;17.55;83.71;100496.47;5072566;28;20190;-78
2023/10/09 03:22:55;;;;;;;1.20;1.20;;;;;;;17.56;83.96;100486.22;5071917;28;20182;-79
2023/10/09 03:25:21;;;;;;;2.73;2.63;;;;;;;17.47;84.81;100477.31;5073719;28;20190;-79
2023/10/09 03:27:48;;;;;;;0.30;0.30;;;;;;;17.56;84.67;100480.69;5072142;28;20182;-79
2023/10/09 03:30:23;;;;;;;12.37;2.83;;;;;;;17.37;84.83;100473.13;5062816;28;20623;-79
2023/10/09 03:32:53;;;;;;;5.67;2.63;;;;;;;17.13;86.00;100454.75;5065414;28;20181;-79
2023/10/09 03:35:27;;;;;;;1.40;0.57;;;;;;;17.22;87.12;100463.69;5073071;28;20602;-78
2023/10/09 03:37:59;;;;;;;3.20;2.33;;;;;;;17.18;88.16;100464.72;5072921;28;20182;-79
2023/10/09 03:40:25;;;;;;;24.23;4.23;;;;;;;17.25;87.81;100454.69;5071168;28;20194;-79
2023/10/09 03:42:51;;;;;;;3.23;2.67;;;;;;;17.03;88.85;100441.47;5072606;28;20174;-79
2023/10/09 03:45:24;;;;;;;4.80;3.57;;;;;;;17.33;88.91;100457.63;5072781;28;20283;-77
2023/10/09 03:48:02;;;;;;;11.83;3.57;;;;;;;17.42;88.52;100452.72;5071594;28;20672;-79
2023/10/09 03:50:35;;;;;;;9.60;3.90;;;;;;;17.47;88.88;100450.47;5071600;28;20178;-79
2023/10/09 03:53:03;;;;;;;14.10;5.03;;;;;;;17.20;89.93;100441.13;5072592;28;20265;-78
2023/10/09 03:55:28;;;;;;;9.80;3.20;;;;;;;17.34;90.40;100450.94;5072768;28;20284;-79
2023/10/09 03:57:58;;;;;;;4.97;4.50;;;;;;;17.32;90.95;100451.28;5073215;28;20265;-79
2023/10/09 04:00:27;;;;;;;5.50;3.83;;;;;;;17.64;89.72;100457.59;5073137;28;20243;-79
2023/10/09 04:02:54;;;;;;;7.33;3.53;;;;;;;17.89;89.01;100471.22;5072921;28;20171;-79
2023/10/09 04:05:19;;;;;;;1.57;1.57;;;;;;;17.91;88.30;100452.31;5074489;28;20205;-79
2023/10/09 04:07:45;;;;;;;4.80;4.40;;;;;;;18.02;87.50;100454.16;5077546;28;20536;-79
2023/10/09 04:12:58;;;;;;;33.53;4.93;;;;;;;17.88;88.13;100453.03;5077152;28;20189;-79
2023/10/09 04:15:24;;;;;;;3.50;3.30;;;;;;;17.93;88.17;100467.38;5077341;28;20552;-78
2023/10/09 04:17:51;;;;;;;1.90;1.67;;;;;;;18.04;87.94;100475.91;5075633;28;20188;-80
2023/10/09 04:22:52;;;;;;;4.97;3.43;;;;;;;17.88;88.93;100484.25;5076522;28;20733;-79
2023/10/09 04:25:41;;;;;;;1.53;1.43;;;;;;;18.24;87.91;100494.16;5076816;28;20664;-79
2023/10/09 04:28:21;;;;;;;1.07;1.07;;;;;;;18.32;87.21;100497.88;5076132;28;20257;-79
2023/10/09 04:30:53;;;;;;;0.60;0.60;;;;;;;18.37;86.35;100492.88;5076550;28;20190;-79
2023/10/09 04:33:28;;;;;;;6.00;2.33;;;;;;;18.48;85.40;100489.50;5075952;28;20691;-78
2023/10/09 04:38:55;;;;;;;8.23;4.87;;;;;;;18.26;86.21;100486.28;5075916;28;20243;-79
2023/10/09 04:41:51;;;;;;;14.87;3.00;;;;;;;18.08;87.92;100491.44;5074536;28;20549;-79
2023/10/09 04:44:35;;;;;;;8.33;5.63;;;;;;;17.84;89.40;100481.41;5076333;28;20218;-79
2023/10/09 04:50:01;;;;;;;7.67;6.83;;;;;;;17.93;90.17;100503.31;5075778;28;20188;-79
2023/10/09 05:02:54;;;;;;;10.67;9.37;;;;;;;17.51;94.70;100489.25;5076355;28;20193;-79
2023/10/09 05:16:22;;;;;;;15.63;12.83;;;;;;;17.47;96.77;100494.69;5075788;28;20174;-78
2023/10/09 05:18:55;;;;;;;10.60;9.60;;;;;;;17.89;96.21;100521.78;5075327;28;20174;-80
2023/10/09 05:31:56;;;;;;;13.93;8.00;;;;;;;17.88;95.36;100531.22;5075176;28;20244;-79
2023/10/09 05:34:23;;;;;;;16.57;11.10;;;;;;;17.70;95.37;100550.16;5074259;28;20210;-77
2023/10/09 05:36:49;;;;;;;31.67;14.50;;;;;;;17.45;97.09;100551.44;5073985;28;20178;-78
2023/10/09 05:39:21;;;;;;;15.60;12.27;;;;;;;17.53;96.84;100543.00;5074379;28;20178;-78
2023/10/09 05:41:59;;;;;;;22.33;16.37;;;;;;;17.19;96.79;100527.88;5073948;28;20255;-79
2023/10/09 05:53:34;;;;;;;12.47;10.27;;;;;;;17.79;96.19;100536.97;5074058;28;20182;-78
2023/10/09 05:56:59;;;;;;;22.60;13.40;;;;;;;17.43;97.44;100512.31;5068073;28;20262;-78
2023/10/09 06:04:12;;;;;;;23.67;14.00;;;;;;;17.21;98.83;100506.25;5073319;28;20225;-78
2023/10/09 06:06:44;;;;;;;12.97;10.83;;;;;;;17.10;99.99;100532.78;5072278;28;20183;-80
2023/10/09 06:11:49;;;;;;;22.10;12.80;;;;;;;17.13;100.00;100595.56;5073588;28;20224;-79
2023/10/09 06:14:45;;;;;;;15.97;9.83;;;;;;;17.11;100.00;100613.66;5073134;28;20564;-79
2023/10/09 06:19:44;;;;;;;12.60;7.87;;;;;;;17.28;100.00;100590.44;5073919;28;20204;-81
2023/10/09 06:24:54;;;;;;;14.93;10.43;;;;;;;17.10;100.00;100589.97;5073379;28;20584;-79
2023/10/09 06:32:37;;;;;;;23.80;14.40;;;;;;;17.12;100.00;100558.06;5073370;28;20667;-79
2023/10/09 06:35:16;;;;;;;20.67;10.97;;;;;;;16.96;100.00;100565.50;5072365;28;20198;-79
2023/10/09 06:43:09;;;;;;;21.90;14.13;;;;;;;16.78;100.00;100577.97;5079067;28;20185;-80
2023/10/09 06:45:43;;;;;;;16.93;12.20;;;;;;;17.19;100.00;100596.91;5078901;28;20170;-80
2023/10/09 06:50:58;;;;;;;16.87;11.73;;;;;;;16.88;100.00;100591.28;5078531;28;20190;-80
2023/10/09 06:53:28;;;;;;;31.13;16.50;;;;;;;16.76;100.00;100591.31;5076877;28;20210;-80
2023/10/09 06:56:05;;;;;;;20.33;13.40;;;;;;;16.85;100.00;100605.78;5078423;28;20183;-80
2023/10/09 06:58:41;;;;;;;28.20;11.43;;;;;;;16.92;100.00;100600.47;5076713;28;20665;-79
2023/10/09 07:03:54;;;;;;;7.77;7.13;;;;;;;17.15;100.00;100612.59;5076941;28;20205;-80
2023/10/09 07:06:23;;;;;;;20.50;11.03;;;;;;;17.35;100.00;100612.72;5077441;28;20242;-80
2023/10/09 07:14:06;;;;;;;10.63;9.60;;;;;;;17.31;99.74;100592.50;5072715;28;20232;-80
2023/10/09 07:16:57;;;;;;;22.00;9.73;;;;;;;17.44;100.00;100614.16;5079030;28;20179;-80
2023/10/09 07:22:15;;;;;;;13.80;8.10;;;;;;;17.43;100.00;100614.53;5077627;28;20232;-80
2023/10/09 07:24:43;;;;;;;17.03;10.83;;;;;;;17.23;100.00;100597.84;5075897;28;20664;-79
2023/10/09 07:27:13;;;;;;;10.23;6.80;;;;;;;17.31;100.00;100615.38;5075709;28;20262;-80
2023/10/09 07:29:48;;;;;;;15.07;10.70;;;;;;;17.17;100.00;100603.94;5074443;28;20716;-79
2023/10/09 07:32:20;;;;;;;12.53;11.40;;;;;;;17.13;100.00;100598.34;5074607;28;20181;-80
2023/10/09 07:34:58;;;;;;;27.10;12.47;;;;;;;17.05;100.00;100591.00;5076769;28;20229;-79
2023/10/09 07:37:34;;;;;;;10.00;8.50;;;;;;;17.33;100.00;100607.56;5073535;28;20175;-80
2023/10/09 07:40:07;;;;;;;11.37;10.30;;;;;;;17.21;100.00;100580.81;5068921;28;20174;-80
2023/10/09 07:48:05;;;;;;;3.70;3.43;;;;;;;17.92;99.68;100608.72;5070440;28;20679;-79
2023/10/09 07:50:40;;;;;;;13.10;11.70;;;;;;;17.98;97.64;100596.25;5069766;28;20178;-80
2023/10/09 07:53:25;;;;;;;12.73;11.43;;;;;;;18.01;97.12;100598.28;5073706;28;20231;-79
2023/10/09 07:56:06;;;;;;;14.20;11.57;;;;;;;18.02;96.79;100581.34;5075519;28;20613;-80
2023/10/09 07:58:33;;;;;;;8.67;6.27;;;;;;;18.23;96.87;100597.66;5066653;28;20182;-80
2023/10/09 08:01:08;;;;;;;7.47;6.47;;;;;;;18.51;95.28;100604.97;5074967;28;20199;-79
2023/10/09 08:03:37;;;;;;;14.03;9.67;;;;;;;18.12;94.94;100569.75;5074744;28;20205;-80
2023/10/09 08:09:47;;;;;;;22.17;9.53;;;;;;;17.70;99.58;100558.44;5072282;28;20209;-79
2023/10/09 08:14:42;;;;;;;22.50;14.43;;;;;;;17.64;100.00;100568.09;5074976;28;20210;-79
2023/10/09 08:17:15;;;;;;;15.17;12.17;;;;;;;17.37;100.00;100558.75;5074392;28;20320;-80
2023/10/09 08:19:55;;;;;;;35.30;14.80;;;;;;;17.21;100.00;100558.72;5075417;28;20189;-78
2023/10/09 08:24:57;;;;;;;31.27;17.50;;;;;;;17.58;100.00;100574.28;5075009;28;20746;-80
2023/10/09 08:33:02;;;;;;;24.60;17.17;;;;;;;17.51;100.00;100555.56;5072539;22;20237;-90
2023/10/09 08:35:47;;;;;;;28.40;15.73;;;;;;;17.39;100.00;100550.13;5059630;28;20179;-92
2023/10/09 08:43:22;;;;;;;27.23;18.63;;;;;;;17.49;100.00;100557.84;5337538;23;20238;-88
2023/10/09 08:45:53;;;;;;;15.93;14.23;;;;;;;17.52;100.00;100557.97;5030912;28;20203;-87
2023/10/09 08:48:21;;;;;;;38.03;20.50;;;;;;;17.71;100.00;100553.72;5047685;28;20607;-87
2023/10/09 08:50:54;;;;;;;37.93;23.93;;;;;;;17.44;100.00;100542.34;5031481;28;20227;-88
2023/10/09 08:53:20;;;;;;;24.23;18.50;;;;;;;17.79;100.00;100553.56;5034450;28;20222;-88
2023/10/09 08:55:46;;;;;;;39.17;22.20;;;;;;;17.37;100.00;100536.66;5035111;28;20175;-88
2023/10/09 08:58:34;;;;;;;27.90;16.27;;;;;;;17.63;100.00;100554.66;5035244;28;20623;-87
2023/10/09 09:01:00;;;;;;;22.47;12.73;;;;;;;17.69;100.00;100545.00;5028551;28;20195;-88
2023/10/09 09:03:26;;;;;;;16.87;15.17;;;;;;;17.95;100.00;100544.44;5034071;28;20257;-88
2023/10/09 09:06:02;;;;;;;18.37;16.13;;;;;;;17.83;100.00;100542.56;5035710;28;20245;-88
2023/10/09 09:08:29;;;;;;;14.97;13.47;;;;;;;17.83;100.00;100548.91;5033255;28;20198;-87
2023/10/09 09:11:12;;;;;;;34.87;22.30;;;;;;;18.03;100.00;100562.78;5036081;28;20172;-88
2023/10/09 09:13:41;;;;;;;18.27;14.07;;;;;;;17.90;100.00;100544.69;5032032;28;20203;-86
2023/10/09 09:16:13;;;;;;;17.00;15.27;;;;;;;17.86;100.00;100538.28;5034066;28;20645;-88
2023/10/09 09:18:51;;;;;;;24.23;17.80;;;;;;;17.94;100.00;100551.94;5034218;28;20550;-88
2023/10/09 09:21:24;;;;;;;13.57;11.63;;;;;;;18.03;100.00;100568.31;5034191;28;20203;-87
2023/10/09 09:24:06;;;;;;;31.90;20.87;;;;;;;18.01;100.00;100560.38;5033773;28;20199;-87
2023/10/09 09:26:44;;;;;;;21.43;13.60;;;;;;;18.00;100.00;100580.09;5034628;28;20214;-87
2023/10/09 09:29:11;;;;;;;23.70;17.43;;;;;;;18.09;100.00;100564.94;5034882;28;20191;-87
2023/10/09 09:31:39;;;;;;;13.27;12.03;;;;;;;17.86;100.00;100544.63;5035154;28;20180;-88
2023/10/09 09:34:16;;;;;;;10.80;9.13;;;;;;;18.38;100.00;100569.16;5037700;28;20199;-87
2023/10/09 09:36:58;;;;;;;21.60;16.00;;;;;;;18.31;100.00;100577.28;5035109;28;20188;-87
2023/10/09 09:39:28;;;;;;;17.03;14.80;;;;;;;18.31;100.00;100571.75;5036834;28;20590;-87
2023/10/09 09:41:56;;;;;;;16.37;11.83;;;;;;;18.40;100.00;100572.38;5035724;28;20214;-87
2023/10/09 09:44:25;;;;;;;7.03;6.53;;;;;;;18.73;100.00;100580.22;5036102;28;20278;-88
2023/10/09 09:46:53;;;;;;;15.57;14.13;;;;;;;18.75;100.00;100563.25;5019477;28;20203;-88
2023/10/09 09:49:21;;;;;;;10.43;8.43;;;;;;;18.86;100.00;100578.13;5035532;28;20184;-87
2023/10/09 09:51:47;;;;;;;16.77;9.53;;;;;;;19.27;98.11;100573.00;5036669;28;20270;-87
2023/10/09 09:54:15;;;;;;;14.70;10.10;;;;;;;19.44;96.12;100580.03;5038261;28;20244;-86
2023/10/09 09:56:44;;;;;;;11.27;7.60;;;;;;;19.43;95.77;100598.63;5042436;28;20179;-87
2023/10/09 09:59:13;;;;;;;4.57;4.17;;;;;;;20.08;93.69;100634.66;5057945;28;20232;-88
2023/10/09 10:01:44;;;;;;;7.30;5.77;;;;;;;18.73;97.58;100605.13;5057176;28;20198;-86
2023/10/09 10:04:21;;;;;;;11.37;10.20;;;;;;;18.83;99.11;100595.47;5054762;28;20180;-88
2023/10/09 10:06:49;;;;;;;18.83;9.53;;;;;;;18.65;100.00;100584.00;5049612;28;20175;-88
2023/10/09 10:09:38;;;;;;;14.53;7.63;;;;;;;18.80;100.00;100600.91;5035127;28;20175;-87
2023/10/09 10:12:43;;;;;;;4.93;4.57;;;;;;;18.96;99.65;100601.66;5035404;28;20953;-87
2023/10/09 10:15:14;;;;;;;15.00;11.23;;;;;;;18.89;98.94;100588.47;5013977;28;20260;-87
2023/10/09 10:18:00;;;;;;;15.60;9.33;;;;;;;19.07;99.03;100608.19;5032835;28;20183;-87
2023/10/09 10:20:26;;;;;;;14.27;9.93;;;;;;;18.83;99.14;100597.44;5033547;28;20183;-88
2023/10/09 10:23:19;;;;;;;12.73;9.73;;;;;;;18.88;98.61;100595.16;5033232;28;20747;-88
2023/10/09 10:26:00;;;;;;;11.27;7.97;;;;;;;19.01;98.39;100607.69;5033897;28;20230;-87
2023/10/09 10:28:38;;;;;;;7.73;5.20;;;;;;;18.98;98.17;100605.66;5033984;28;20210;-87
2023/10/09 10:31:04;;;;;;;5.30;4.90;;;;;;;19.25;97.04;100625.19;5032855;28;20649;-86
2023/10/09 10:33:54;;;;;;;8.37;5.90;;;;;;;19.37;96.25;100622.25;5034824;28;20188;-86
2023/10/09 10:36:23;;;;;;;7.43;6.73;;;;;;;19.32;95.74;100628.09;5026677;28;20222;-87
2023/10/09 10:39:21;;;;;;;3.50;2.87;;;;;;;19.42;95.71;100629.47;5025745;28;20176;-87
2023/10/09 10:41:59;;;;;;;6.07;5.57;;;;;;;19.37;96.55;100627.00;5032753;28;20227;-86
2023/10/09 10:44:36;;;;;;;1.30;1.27;;;;;;;19.28;96.08;100607.84;5034463;28;20420;-87
2023/10/09 10:47:03;;;;;;;3.97;3.73;;;;;;;19.16;96.75;100608.00;5033190;28;20183;-87
2023/10/09 10:49:38;;;;;;;4.40;4.00;;;;;;;19.18;96.49;100597.34;5033366;28;20182;-87
2023/10/09 10:52:18;;;;;;;5.70;4.53;;;;;;;18.88;97.75;100586.84;5033419;28;20203;-88
2023/10/09 10:57:53;;;;;;;5.47;3.73;;;;;;;19.14;98.04;100602.03;5037205;28;20172;-87
2023/10/09 11:03:19;;;;;;;8.63;7.83;;;;;;;18.88;98.57;100592.41;5033705;28;20265;-87
2023/10/09 11:05:50;;;;;;;10.97;8.43;;;;;;;18.81;99.06;100608.88;5031438;28;20242;-88
2023/10/09 11:08:18;;;;;;;12.07;6.93;;;;;;;18.62;100.00;100593.00;5032073;28;20186;-87
2023/10/09 11:10:50;;;;;;;11.10;10.00;;;;;;;18.62;100.00;100592.19;5025356;28;20175;-87
2023/10/09 11:13:30;;;;;;;6.07;5.40;;;;;;;18.75;100.00;100598.44;5033043;28;20238;-87
2023/10/09 11:16:14;;;;;;;7.63;6.93;;;;;;;18.63;100.00;100591.03;5025121;28;20183;-87
2023/10/09 11:18:45;;;;;;;10.27;7.40;;;;;;;18.67;100.00;100594.72;5032739;28;20232;-87
2023/10/09 11:23:53;;;;;;;10.63;7.20;;;;;;;18.77;100.00;100607.16;5033098;28;20195;-87
2023/10/09 11:26:28;;;;;;;12.63;11.63;;;;;;;18.32;100.00;100595.47;5033410;28;20175;-88
2023/10/09 11:32:03;;;;;;;13.63;12.63;;;;;;;18.39;100.00;100595.66;5026231;28;20660;-88
2023/10/09 11:34:29;;;;;;;18.33;14.50;;;;;;;18.30;100.00;100594.25;5033084;28;20180;-88
2023/10/09 11:37:15;;;;;;;15.87;12.63;;;;;;;18.40;100.00;100596.47;5032009;28;20242;-87
2023/10/09 11:39:52;;;;;;;7.30;6.57;;;;;;;18.31;100.00;100599.41;5033003;28;20180;-88
2023/10/09 11:42:38;;;;;;;16.57;12.23;;;;;;;18.27;100.00;100594.97;5031363;28;20207;-86
2023/10/09 11:45:24;;;;;;;15.00;13.77;;;;;;;18.37;100.00;100595.22;5025856;28;20218;-87
2023/10/09 11:47:57;;;;;;;9.53;8.73;;;;;;;18.31;100.00;100593.06;5025155;28;20523;-87
2023/10/09 11:50:49;;;;;;;15.53;11.53;;;;;;;18.57;100.00;100612.66;5030442;28;20187;-87
2023/10/09 11:53:19;;;;;;;10.30;9.47;;;;;;;18.43;100.00;100593.78;5033908;28;20230;-87
2023/10/09 11:55:49;;;;;;;11.47;10.20;;;;;;;18.37;100.00;100597.16;5032612;28;20480;-87
2023/10/09 11:58:24;;;;;;;11.83;10.73;;;;;;;18.35;100.00;100600.28;5031168;28;20184;-87
2023/10/09 12:00:58;;;;;;;8.97;8.33;;;;;;;18.52;100.00;100609.38;5023615;28;20222;-88
2023/10/09 12:03:29;;;;;;;9.10;7.43;;;;;;;18.61;100.00;100607.19;5031248;28;20203;-87
2023/10/09 12:06:07;;;;;;;9.03;8.30;;;;;;;18.65;100.00;100606.13;5031857;28;20570;-87
2023/10/09 12:08:33;;;;;;;12.87;11.83;;;;;;;18.44;100.00;100600.91;5031253;28;20268;-88
2023/10/09 12:11:01;;;;;;;11.97;11.07;;;;;;;18.53;100.00;100595.19;5031454;28;20216;-87
2023/10/09 12:13:26;;;;;;;12.10;10.90;;;;;;;18.41;100.00;100598.88;5031859;28;20200;-88
2023/10/09 12:15:52;;;;;;;8.93;8.33;;;;;;;18.44;100.00;100594.56;5031690;28;20328;-87
2023/10/09 12:18:19;;;;;;;7.87;7.33;;;;;;;18.38;100.00;100598.78;5032700;28;20176;-88
2023/10/09 12:20:51;;;;;;;5.10;4.70;;;;;;;18.48;100.00;100603.75;5032221;28;20211;-88
2023/10/09 12:23:22;;;;;;;6.53;6.03;;;;;;;18.48;100.00;100611.25;5030880;28;20273;-87
2023/10/09 12:25:49;;;;;;;5.37;4.97;;;;;;;18.70;100.00;100624.44;5023314;28;20187;-87
2023/10/09 12:28:15;;;;;;;3.27;2.97;;;;;;;18.71;100.00;100623.28;5034961;28;20671;-88
2023/10/09 12:30:41;;;;;;;2.33;2.10;;;;;;;18.83;100.00;100620.38;5036011;28;20180;-87
2023/10/09 12:33:07;;;;;;;4.40;4.03;;;;;;;18.60;100.00;100598.09;5035760;28;20203;-90
2023/10/09 12:35:40;;;;;;;1.20;1.17;;;;;;;18.84;100.00;100626.72;5035788;28;20194;-87
2023/10/09 12:38:10;;;;;;;2.57;2.43;;;;;;;18.81;100.00;100614.41;5036421;28;20227;-88
2023/10/09 12:40:36;;;;;;;3.13;2.93;;;;;;;18.65;100.00;100605.31;5035098;28;20257;-88
2023/10/09 12:43:02;;;;;;;3.43;3.23;;;;;;;18.60;100.00;100619.44;5036012;28;20692;-86
2023/10/09 12:45:32;;;;;;;2.70;2.27;;;;;;;18.62;100.00;100617.91;5035051;28;20180;-87
2023/10/09 12:48:03;;;;;;;1.90;1.80;;;;;;;18.71;100.00;100620.50;5034887;28;20245;-87
2023/10/09 12:50:33;;;;;;;2.70;2.50;;;;;;;18.88;100.00;100625.63;5036415;28;20176;-88
2023/10/09 12:53:06;;;;;;;3.03;1.77;;;;;;;18.93;100.00;100625.31;5034121;28;20222;-87
2023/10/09 12:55:34;;;;;;;2.00;1.87;;;;;;;18.99;100.00;100618.34;5034123;28;20233;-87
2023/10/09 12:58:07;;;;;;;3.90;3.50;;;;;;;19.10;100.00;100634.41;5035135;28;20230;-87
2023/10/09 13:00:44;;;;;;;1.93;1.83;;;;;;;19.17;100.00;100621.47;5034121;28;20187;-87
2023/10/09 13:03:16;;;;;;;5.33;4.83;;;;;;;19.06;100.00;100620.44;5033673;28;20203;-88
2023/10/09 13:05:54;;;;;;;4.13;3.83;;;;;;;18.93;100.00;100616.22;5033810;28;20195;-87
2023/10/09 13:08:21;;;;;;;5.43;5.07;;;;;;;18.93;100.00;100608.72;5033931;28;20266;-87
2023/10/09 13:10:54;;;;;;;2.67;2.57;;;;;;;19.10;100.00;100610.25;5033926;28;20549;-87
2023/10/09 13:13:19;;;;;;;6.77;4.00;;;;;;;19.23;100.00;100608.91;5033652;28;20669;-87
2023/10/09 13:15:45;;;;;;;4.13;3.83;;;;;;;19.05;100.00;100599.47;5034768;28;20211;-87
2023/10/09 13:18:10;;;;;;;4.77;4.47;;;;;;;18.99;100.00;100600.94;5033738;28;20615;-88
2023/10/09 13:20:36;;;;;;;8.20;6.20;;;;;;;18.86;100.00;100608.56;5034934;28;20187;-87
2023/10/09 13:23:01;;;;;;;4.17;3.87;;;;;;;18.95;100.00;100613.88;5034637;28;20679;-87
2023/10/09 13:25:32;;;;;;;3.00;2.80;;;;;;;18.99;100.00;100623.09;5035087;28;20637;-88
2023/10/09 13:27:57;;;;;;;6.17;5.73;;;;;;;18.94;100.00;100606.75;5033400;28;20194;-87
2023/10/09 13:30:23;;;;;;;6.73;6.23;;;;;;;18.89;100.00;100616.16;5034568;28;20207;-86
2023/10/09 13:32:51;;;;;;;5.60;5.20;;;;;;;19.03;100.00;100627.53;5033154;28;20300;-88
2023/10/09 13:35:18;;;;;;;6.57;6.07;;;;;;;19.00;100.00;100633.00;5034879;28;20183;-88
2023/10/09 13:37:47;;;;;;;16.20;8.13;;;;;;;18.87;100.00;100617.69;5035142;28;20187;-87
2023/10/09 13:40:26;;;;;;;3.97;3.77;;;;;;;18.87;100.00;100618.47;5034710;28;20229;-87
2023/10/09 13:42:52;;;;;;;4.17;3.87;;;;;;;19.02;100.00;100627.88;5025927;28;20211;-87
2023/10/09 13:45:17;;;;;;;7.20;6.40;;;;;;;19.10;100.00;100620.53;5035091;28;20306;-88
2023/10/09 13:47:45;;;;;;;7.53;6.83;;;;;;;19.14;100.00;100627.75;5033791;28;20187;-87
2023/10/09 13:50:10;;;;;;;8.67;3.90;;;;;;;19.22;100.00;100623.13;5033064;28;20263;-86
2023/10/09 13:52:39;;;;;;;7.87;6.73;;;;;;;19.24;100.00;100618.88;5033982;28;20204;-87
2023/10/09 13:55:15;;;;;;;5.37;4.30;;;;;;;19.26;100.00;100616.53;5035087;28;20657;-87
2023/10/09 13:57:43;;;;;;;4.50;4.10;;;;;;;19.27;100.00;100618.13;5034362;28;20653;-87
2023/10/09 14:00:10;;;;;;;3.43;3.23;;;;;;;19.18;100.00;100608.44;5033029;28;20664;-87
2023/10/09 14:02:36;;;;;;;3.90;3.60;;;;;;;19.12;100.00;100615.44;5031807;28;20211;-88
2023/10/09 14:05:03;;;;;;;7.40;6.20;;;;;;;19.01;100.00;100607.69;5029273;28;20176;-88
2023/10/09 14:07:29;;;;;;;6.40;5.90;;;;;;;19.06;100.00;100620.44;5032991;28;20290;-87